CW5066 Weather Reports


Display with metric or nautical units.
time (UTC)temp
F
wind
direction
speed
MPH
gust
MPH
rain 1hr
in
rain 24hr
in
rain mn
in
humidity
%
barometer
mb
20171120205516 42 293 23.0 46.0 0.00 0.01 0.01 22 1013.1
20171120204516 42 293 24.0 48.0 0.00 0.01 0.01 21 1013.4
20171120203516 42 284 21.0 45.0 0.00 0.01 0.01 22 1013.6
20171120202516 43 292 22.0 47.0 0.00 0.01 0.01 21 1013.6
20171120201516 43 283 20.0 41.0 0.00 0.01 0.01 21 1013.5
20171120200516 43 292 21.0 45.0 0.00 0.01 0.01 21 1013.5
20171120195516 43 280 22.0 43.0 0.00 0.01 0.01 20 1012.5
20171120194516 43 288 22.0 47.0 0.00 0.01 0.01 20 1013.5
20171120193516 43 285 21.0 49.0 0.00 0.01 0.01 19 1012.7
20171120192516 43 283 26.0 54.0 0.00 0.01 0.01 20 1012.4
20171120191516 42 286 23.0 52.0 0.00 0.01 0.01 20 1011.5
20171120190517 41 291 31.0 57.0 0.00 0.01 0.01 19 1011.6
20171120185516 41 284 27.0 60.0 0.00 0.01 0.01 17 1011.9
20171120184516 41 287 25.0 49.0 0.00 0.01 0.01 19 1011.7
20171120183516 40 286 27.0 58.0 0.00 0.01 0.01 17 1011.4
20171120182516 40 289 26.0 50.0 0.00 0.01 0.01 16 1011.7
20171120181516 39 292 29.0 55.0 0.00 0.01 0.01 16 1012.0
20171120180516 39 298 26.0 57.0 0.00 0.01 0.01 16 1012.3
20171120175516 40 288 23.0 51.0 0.00 0.01 0.01 16 1011.7
20171120174516 40 294 26.0 55.0 0.00 0.01 0.01 15 1011.6
20171120173516 40 278 21.0 53.0 0.00 0.01 0.01 16 1011.3
20171120172516 39 288 25.0 60.0 0.00 0.01 0.01 16 1011.5
20171120171516 39 281 28.0 61.0 0.00 0.01 0.01 15 1012.1
20171120170516 39 287 22.0 53.0 0.00 0.01 0.01 16 1011.9
20171120165516 39 286 30.0 55.0 0.00 0.01 0.01 15 1012.2
20171120164516 39 292 26.0 59.0 0.00 0.01 0.01 15 1011.4
20171120163515 39 275 27.0 52.0 0.00 0.01 0.01 15 1011.0
20171120162515 40 284 26.0 50.0 0.00 0.01 0.01 14 1010.5
20171120161515 40 282 25.0 56.0 0.00 0.01 0.01 15 1010.7
20171120160515 40 279 24.0 49.0 0.00 0.01 0.01 14 1010.8
20171120155515 39 277 24.0 44.0 0.00 0.01 0.01 15 1011.0
20171120154515 39 276 22.0 51.0 0.00 0.01 0.01 14 1010.9
20171120153515 39 274 25.0 50.0 0.00 0.01 0.01 14 1010.7
20171120152515 39 278 23.0 45.0 0.00 0.01 0.01 14 1010.7
20171120151515 39 279 21.0 53.0 0.00 0.01 0.01 14 1010.7
20171120150515 39 280 18.0 46.0 0.00 0.01 0.01 14 1011.2
20171120145515 39 286 23.0 53.0 0.00 0.01 0.01 13 1011.1
20171120144516 39 282 17.0 48.0 0.00 0.01 0.01 13 1010.8
20171120143515 39 258 15.0 52.0 0.00 0.01 0.01 13 1010.9
20171120142515 39 250 17.0 41.0 0.00 0.01 0.01 13 1010.9
20171120141515 39 284 17.0 46.0 0.00 0.01 0.01 13 1011.4
20171120140517 38 287 19.0 41.0 0.00 0.01 0.01 13 1011.7
20171120135515 38 294 24.0 53.0 0.00 0.01 0.01 13 1011.8
20171120134515 38 272 25.0 59.0 0.00 0.01 0.01 13 1011.8
20171120133516 38 275 30.0 64.0 0.00 0.01 0.01 13 1011.8
20171120132515 37 283 29.0 61.0 0.00 0.01 0.01 13 1011.8
20171120131515 37 284 28.0 47.0 0.00 0.01 0.01 13 1012.0
20171120130515 37 290 32.0 57.0 0.00 0.01 0.01 13 1012.4
20171120125515 38 287 29.0 58.0 0.00 0.01 0.01 12 1012.5
20171120124515 38 282 24.0 52.0 0.00 0.01 0.01 12 1012.1
20171120123515 38 291 25.0 49.0 0.01 0.01 0.01 13 1012.4
20171120122515 38 277 23.0 51.0 0.01 0.01 0.01 13 1012.7
20171120121516 37 279 25.0 56.0 0.01 0.01 0.01 13 1011.1
20171120120515 37 286 29.0 56.0 0.01 0.01 0.01 12 1012.2
20171120115515 37 284 29.0 57.0 0.01 0.01 0.01 12 1012.1
20171120114515 36 282 29.0 63.0 0.01 0.01 0.01 12 1012.2
20171120113515 36 279 22.0 50.0 0.00 0.00 0.00 13 1012.5
20171120112515 36 249 21.0 47.0 0.00 0.00 0.00 13 1013.3
20171120111515 36 244 20.0 43.0 0.00 0.00 0.00 12 1014.4
20171120110516 37 233 19.0 41.0 0.00 0.00 0.00 13 1015.5
20171120105515 37 240 12.0 35.0 0.00 0.00 0.00 13 1016.0
20171120104515 36 209 11.0 34.0 0.00 0.00 0.00 14 1017.3
20171120103705 37 200 13.0 31.0 0.00 0.00 0.00 14 1017.4
20171120102515 36 217 9.0 22.0 0.00 0.00 0.00 14 1017.7
20171120101515 36 177 4.0 17.0 0.00 0.00 0.00 15 1017.8
20171120100516 35 190 6.0 16.0 0.00 0.00 0.00 15 1017.1
20171120095517 35 206 7.0 27.0 0.00 0.00 0.00 15 1017.2
20171120094517 35 210 7.0 17.0 0.00 0.00 0.00 15 1017.8
20171120093517 36 218 9.0 20.0 0.00 0.00 0.00 14 1018.1
20171120092517 37 248 12.0 23.0 0.00 0.00 0.00 13 1018.7
20171120091515 36 228 14.0 31.0 0.00 0.00 0.00 13 1018.2
20171120085517 35 238 10.0 19.0 0.00 0.00 0.00 15 1018.4
20171120084517 35 248 7.0 16.0 0.00 0.00 0.00 15 1017.8
20171120083516 35 253 9.0 24.0 0.00 0.00 0.00 16 1018.2
20171120082516 35 249 6.0 15.0 0.00 0.00 0.00 16 1018.0
20171120081516 35 256 7.0 23.0 0.00 0.00 0.00 16 1018.3
20171120080517 34 277 6.0 21.0 0.00 0.00 0.00 17 1019.2
20171120075516 34 265 7.0 13.0 0.00 0.00 0.00 17 1018.7
20171120074517 34 255 8.0 22.0 0.00 0.00 0.00 17 1019.6
20171120073516 34 241 13.0 23.0 0.00 0.00 0.00 16 1019.7
20171120072516 34 252 10.0 26.0 0.00 0.00 0.00 17 1019.4
20171120071517 33 270 8.0 24.0 0.00 0.00 0.00 18 1018.8
20171120070516 33 249 9.0 19.0 0.00 0.00 0.00 17 1018.0
20171120065515 33 252 10.0 24.0 0.00 0.00 0.00 17 1018.1
20171120064515 33 272 9.0 21.0 0.00 0.00 0.00 17 1019.0
20171120063515 33 253 11.0 20.0 0.00 0.00 0.00 17 1018.9
20171120062516 33 244 14.0 30.0 0.00 0.00 0.00 17 1019.0
20171120061515 33 261 12.0 33.0 0.00 0.00 0.00 17 1019.9
20171120060515 32 247 14.0 31.0 0.00 0.00 0.00 18 1019.8
20171120055515 32 246 12.0 25.0 0.00 0.00 0.00 18 1020.0
20171120054515 33 248 14.0 34.0 0.00 0.00 0.00 17 1019.2
20171120053516 33 236 23.0 42.0 0.00 0.00 0.00 17 1018.7
20171120052515 33 242 16.0 30.0 0.00 0.00 0.00 18 1019.1
20171120051515 33 238 17.0 35.0 0.00 0.00 0.00 18 1019.0
20171120050517 33 238 11.0 28.0 0.00 0.00 0.00 18 1018.7
20171120045515 33 260 9.0 25.0 0.00 0.00 0.00 17 1019.1
20171120044515 33 249 13.0 39.0 0.00 0.00 0.00 18 1019.2
20171120043515 33 250 10.0 22.0 0.00 0.00 0.00 18 1018.8
20171120042515 33 288 6.0 15.0 0.00 0.00 0.00 18 1018.9
20171120041515 32 261 2.0 12.0 0.00 0.00 0.00 19 1018.9
20171120040515 33 239 6.0 11.0 0.00 0.00 0.00 19 1018.6
20171120035515 33 242 7.0 19.0 0.00 0.00 0.00 19 1018.4
20171120034517 33 252 7.0 22.0 0.00 0.00 0.00 20 1018.2
20171120033517 33 276 17.0 33.0 0.00 0.00 0.00 18 1018.0
20171120032517 33 258 11.0 26.0 0.00 0.00 0.00 18 1018.1
20171120031516 34 239 14.0 29.0 0.00 0.00 0.00 18 1018.0
20171120030516 34 266 11.0 26.0 0.00 0.00 0.00 17 1018.9
20171120025517 33 265 7.0 16.0 0.00 0.00 0.00 18 1018.6
20171120024517 33 238 13.0 26.0 0.00 0.00 0.00 20 1016.9
20171120023517 32 241 12.0 21.0 0.00 0.00 0.00 20 1017.2
20171120022516 33 283 11.0 24.0 0.00 0.00 0.00 20 1017.8
20171120021515 33 279 8.0 15.0 0.00 0.00 0.00 20 1017.3
20171120020516 33 251 3.0 11.0 0.00 0.00 0.00 19 1017.4
20171120015517 33 236 7.0 21.0 0.00 0.00 0.00 19 1017.9
20171120014516 33 233 12.0 24.0 0.00 0.00 0.00 18 1017.3
20171120013516 33 235 12.0 25.0 0.00 0.00 0.00 19 1017.0
20171120012516 34 236 14.0 28.0 0.00 0.00 0.00 19 1016.8
20171120011516 34 238 17.0 36.0 0.00 0.00 0.00 18 1016.5
20171120010516 33 231 15.0 24.0 0.00 0.00 0.00 20 1017.0
20171120005516 33 228 12.0 23.0 0.00 0.00 0.00 22 1016.6
20171120004516 33 240 13.0 25.0 0.00 0.00 0.00 22 1017.1
20171120003516 33 242 15.0 27.0 0.00 0.00 0.00 23 1016.2
20171120002516 33 239 16.0 29.0 0.00 0.00 0.00 23 1016.3
20171120001516 34 242 16.0 28.0 0.00 0.00 0.00 24 1016.6
20171120000516 34 240 16.0 29.0 0.00 0.00 0.00 23 1016.9
20171119235516 34 237 14.0 22.0 0.00 0.00 0.00 23 1017.5
20171119234516 35 239 14.0 27.0 0.00 0.00 0.00 23 1017.7
20171119233516 35 238 16.0 29.0 0.00 0.00 0.00 23 1017.3
20171119232516 36 242 18.0 32.0 0.00 0.00 0.00 22 1017.3
20171119231516 36 238 21.0 36.0 0.00 0.00 0.00 22 1017.6
20171119230516 37 246 17.0 31.0 0.00 0.00 0.00 22 1017.8
20171119225516 38 238 16.0 30.0 0.00 0.00 0.00 21 1018.6
20171119224516 38 251 14.0 29.0 0.00 0.00 0.00 19 1019.1
20171119223516 39 244 12.0 23.0 0.00 0.00 0.00 19 1019.3
20171119222516 39 248 14.0 22.0 0.00 0.00 0.00 19 1020.2
20171119221516 39 242 10.0 23.0 0.00 0.00 0.00 18 1020.3
20171119220517 39 247 13.0 22.0 0.00 0.00 0.00 18 1020.6
20171119215516 39 284 14.0 28.0 0.00 0.00 0.00 18 1021.0
20171119214516 39 285 15.0 31.0 0.00 0.00 0.00 17 1021.7
20171119213516 41 278 9.0 24.0 0.00 0.00 0.00 18 1022.4
20171119212516 40 242 11.0 21.0 0.00 0.00 0.00 18 1022.8
20171119211516 40 237 10.0 26.0 0.00 0.00 0.00 18 1022.2
20171119210516 41 226 9.0 20.0 0.00 0.00 0.00 18 1022.8